createdAt,value
2019-04-22T00:02:17.494Z,101098.44
2019-04-22T00:06:00.390Z,101098.02
2019-04-22T00:09:30.926Z,101099.98
2019-04-22T00:13:02.882Z,101094.83
2019-04-22T00:16:32.058Z,101092.55
2019-04-22T00:19:55.606Z,101088.20
2019-04-22T00:23:13.184Z,101085.89
2019-04-22T00:26:44.406Z,101079.91
2019-04-22T00:30:15.481Z,101072.62
2019-04-22T00:33:31.251Z,101070.51
2019-04-22T00:36:54.834Z,101069.94
2019-04-22T00:40:21.347Z,101076.37
2019-04-22T00:43:51.108Z,101066.09
2019-04-22T00:47:16.386Z,101065.95
2019-04-22T00:50:44.321Z,101066.30
2019-04-22T00:54:03.819Z,101068.13
2019-04-22T00:57:28.449Z,101071.98
2019-04-22T01:00:54.225Z,101063.34
2019-04-22T01:04:31.142Z,101056.69
2019-04-22T01:07:44.565Z,101059.49
2019-04-22T01:11:21.449Z,101051.45
2019-04-22T01:14:38.280Z,101053.43
2019-04-22T01:17:57.882Z,101046.87
2019-04-22T01:21:36.376Z,101047.49
2019-04-22T01:24:50.257Z,101045.34
2019-04-22T01:28:10.873Z,101038.69
2019-04-22T01:31:23.945Z,101035.36
2019-04-22T01:34:57.591Z,101036.85
2019-04-22T01:38:31.353Z,101025.93
2019-04-22T01:42:10.729Z,101029.84
2019-04-22T01:45:31.300Z,101024.98
2019-04-22T01:48:54.280Z,101026.75
2019-04-22T01:52:15.765Z,101016.56
2019-04-22T01:55:45.328Z,101018.75
2019-04-22T01:58:59.014Z,101010.09
2019-04-22T02:02:40.108Z,101011.88
2019-04-22T02:06:02.349Z,101002.97
2019-04-22T02:12:48.367Z,100998.53
2019-04-22T02:16:15.147Z,101000.08
2019-04-22T02:19:31.173Z,100990.74
2019-04-22T02:23:45.845Z,100992.95
2019-04-22T02:26:53.083Z,100987.79
2019-04-22T02:30:05.826Z,100985.87
2019-04-22T02:34:00.799Z,100981.77
2019-04-22T02:37:02.852Z,100984.05
2019-04-22T02:40:50.718Z,100984.95
2019-04-22T02:43:59.581Z,100979.53
2019-04-22T02:47:27.604Z,100979.09
2019-04-22T02:50:43.774Z,100973.43
2019-04-22T02:57:45.058Z,100976.31
2019-04-22T03:01:05.954Z,100973.98
2019-04-22T03:08:02.447Z,100970.55
2019-04-22T03:11:19.179Z,100962.78
2019-04-22T03:14:41.353Z,100960.74
2019-04-22T03:18:09.725Z,100949.52
2019-04-22T03:21:34.317Z,100944.09
2019-04-22T03:25:23.661Z,100945.56
2019-04-22T03:28:33.087Z,100943.17
2019-04-22T03:39:06.848Z,100933.22
2019-04-22T03:45:32.216Z,100926.94
2019-04-22T03:49:23.121Z,100926.09
2019-04-22T03:55:57.523Z,100919.66
2019-04-22T03:59:29.095Z,100920.41
2019-04-22T04:06:05.311Z,100915.43
2019-04-22T04:09:42.617Z,100907.00
2019-04-22T04:13:02.863Z,100906.47
2019-04-22T04:16:29.978Z,100902.05
2019-04-22T04:30:13.978Z,100903.55
2019-04-22T04:33:51.856Z,100897.77
2019-04-22T04:37:07.482Z,100895.52
2019-04-22T04:40:28.798Z,100893.23
2019-04-22T04:47:32.934Z,100889.97
2019-04-22T04:57:56.974Z,100893.09
2019-04-22T05:01:03.297Z,100897.84
2019-04-22T05:04:25.538Z,100888.62
2019-04-22T05:07:51.937Z,100890.46
2019-04-22T05:11:16.098Z,100891.19
2019-04-22T05:14:28.752Z,100889.72
2019-04-22T05:24:56.884Z,100891.32
2019-04-22T05:28:10.328Z,100892.87
2019-04-22T05:31:37.198Z,100892.55
2019-04-22T05:35:01.333Z,100883.30
2019-04-22T05:38:33.194Z,100883.09
2019-04-22T05:41:54.854Z,100881.19
2019-04-22T05:45:23.146Z,100883.09
2019-04-22T05:48:46.288Z,100876.31
2019-04-22T05:52:11.110Z,100883.25
2019-04-22T05:55:38.650Z,100877.86
2019-04-22T06:02:45.635Z,100868.77
2019-04-22T06:05:47.409Z,100869.78
2019-04-22T06:09:16.972Z,100868.17
2019-04-22T06:12:40.098Z,100871.13
2019-04-22T06:16:09.351Z,100872.20
2019-04-22T06:19:34.881Z,100869.67
2019-04-22T06:26:46.267Z,100863.97
2019-04-22T06:29:50.785Z,100869.19
2019-04-22T06:36:45.212Z,100874.97
2019-04-22T06:40:06.168Z,100872.52
2019-04-22T06:47:00.115Z,100868.68
2019-04-22T06:50:26.149Z,100871.11
2019-04-22T06:53:47.283Z,100865.88
2019-04-22T06:57:11.586Z,100876.12
2019-04-22T07:00:36.712Z,100869.73
2019-04-22T07:07:26.759Z,100868.19
2019-04-22T07:10:50.742Z,100870.21
2019-04-22T07:14:28.586Z,100866.48
2019-04-22T07:21:05.940Z,100859.88
2019-04-22T07:24:41.808Z,100858.14
2019-04-22T07:28:01.408Z,100853.48
2019-04-22T07:31:26.842Z,100855.15
2019-04-22T07:34:52.460Z,100857.17
2019-04-22T07:38:25.526Z,100864.04
2019-04-22T07:41:49.023Z,100850.29
2019-04-22T07:45:10.207Z,100854.98
2019-04-22T07:48:43.413Z,100853.28
2019-04-22T07:51:56.175Z,100846.09
2019-04-22T07:55:30.586Z,100847.19
2019-04-22T07:58:53.658Z,100843.30
2019-04-22T08:02:16.037Z,100837.48
2019-04-22T08:05:51.926Z,100839.03
2019-04-22T08:12:51.922Z,100829.06
2019-04-22T08:15:58.114Z,100823.94
2019-04-22T08:22:51.048Z,100831.80
2019-04-22T08:26:16.771Z,100833.26
2019-04-22T08:29:46.955Z,100829.87
2019-04-22T08:33:05.123Z,100834.23
2019-04-22T08:36:32.346Z,100823.86
2019-04-22T08:40:04.537Z,100819.45
2019-04-22T08:43:26.796Z,100810.76
2019-04-22T08:47:04.413Z,100809.77
2019-04-22T08:50:16.500Z,100806.84
2019-04-22T08:53:45.403Z,100792.77
2019-04-22T08:56:56.940Z,100787.92
2019-04-22T09:00:44.572Z,100791.48
2019-04-22T09:03:52.463Z,100787.80
2019-04-22T09:07:20.931Z,100778.49
2019-04-22T09:11:07.770Z,100782.41
2019-04-22T09:17:28.860Z,100768.41
2019-04-22T09:20:58.823Z,100763.27
2019-04-22T09:27:48.417Z,100743.61
2019-04-22T09:31:11.803Z,100748.02
2019-04-22T09:34:35.192Z,100737.09
2019-04-22T09:38:12.064Z,100737.11
2019-04-22T09:41:27.139Z,100734.34
2019-04-22T09:45:06.055Z,100723.75
2019-04-22T09:51:46.172Z,100713.72
2019-04-22T09:58:31.687Z,100713.75
2019-04-22T10:02:13.387Z,100699.75
2019-04-22T10:05:21.179Z,100693.03
2019-04-22T10:09:01.734Z,100679.38
2019-04-22T10:12:19.086Z,100688.42
2019-04-22T10:15:39.646Z,100687.84
2019-04-22T10:19:04.204Z,100673.27
2019-04-22T10:22:35.004Z,100663.13
2019-04-22T10:25:57.112Z,100665.95
2019-04-22T10:29:43.902Z,100657.90
2019-04-22T10:33:03.005Z,100655.05
2019-04-22T10:35:47.598Z,100654.98
2019-04-22T10:39:12.555Z,100645.50
2019-04-22T10:42:43.438Z,100634.83
2019-04-22T10:46:08.108Z,100631.25
2019-04-22T10:49:31.536Z,100630.10
2019-04-22T10:52:55.344Z,100617.49
2019-04-22T10:56:22.981Z,100617.25
2019-04-22T10:59:46.863Z,100607.95
2019-04-22T11:03:12.055Z,100610.32
2019-04-22T11:06:41.006Z,100598.38
2019-04-22T11:10:22.806Z,100597.13
2019-04-22T11:13:31.629Z,100587.58
2019-04-22T11:16:58.191Z,100585.78
2019-04-22T11:20:21.775Z,100578.04
2019-04-22T11:23:45.120Z,100573.41
2019-04-22T11:27:08.402Z,100569.41
2019-04-22T11:30:32.397Z,100564.38
2019-04-22T11:33:56.691Z,100558.48
2019-04-22T11:37:20.765Z,100550.88
2019-04-22T11:40:49.950Z,100547.98
2019-04-22T11:44:09.598Z,100539.45
2019-04-22T11:47:33.371Z,100532.64
2019-04-22T11:50:57.770Z,100528.37
2019-04-22T11:54:22.982Z,100521.08
2019-04-22T11:57:47.606Z,100516.09
2019-04-22T12:01:12.666Z,100513.39
2019-04-22T12:04:36.063Z,100504.97
2019-04-22T12:08:03.007Z,100510.05
2019-04-22T12:11:26.364Z,100505.41
2019-04-22T12:14:50.085Z,100495.00
2019-04-22T12:18:15.168Z,100493.14
2019-04-22T12:21:39.367Z,100493.90
2019-04-22T12:25:04.134Z,100485.70
2019-04-22T12:28:28.710Z,100477.30
2019-04-22T12:31:51.871Z,100468.94
2019-04-22T12:35:17.755Z,100465.73
2019-04-22T12:38:41.804Z,100447.66
2019-04-22T12:42:06.195Z,100453.77
2019-04-22T12:45:31.925Z,100443.87
2019-04-22T12:48:56.257Z,100437.75
2019-04-22T12:52:26.655Z,100428.56
2019-04-22T12:55:45.930Z,100432.27
2019-04-22T12:59:09.719Z,100432.12
2019-04-22T13:02:33.182Z,100419.31
2019-04-22T13:05:57.548Z,100418.00
2019-04-22T13:09:21.242Z,100405.00
2019-04-22T13:12:44.756Z,100397.64
2019-04-22T13:16:09.033Z,100393.42
2019-04-22T13:19:33.874Z,100388.98
2019-04-22T13:22:57.107Z,100385.69
2019-04-22T13:26:21.116Z,100374.81
2019-04-22T13:29:46.567Z,100367.81
2019-04-22T13:33:10.735Z,100362.03
2019-04-22T13:36:34.640Z,100353.33
2019-04-22T13:40:05.381Z,100362.41
2019-04-22T13:43:34.745Z,100360.14
2019-04-22T13:47:14.543Z,100357.08
2019-04-22T13:57:32.815Z,100332.92
2019-04-22T14:00:42.559Z,100334.50
2019-04-22T14:04:32.553Z,100328.50
2019-04-22T14:07:57.572Z,100331.87
2019-04-22T14:11:34.155Z,100313.62
2019-04-22T14:14:49.081Z,100304.65
2019-04-22T14:18:12.867Z,100309.36
2019-04-22T14:21:36.792Z,100302.86
2019-04-22T14:25:02.877Z,100307.97
2019-04-22T14:29:05.962Z,100301.36
2019-04-22T14:32:32.349Z,100289.00
2019-04-22T14:35:56.633Z,100282.23
2019-04-22T14:39:19.888Z,100273.58
2019-04-22T14:43:00.590Z,100266.08
2019-04-22T14:46:35.983Z,100265.48
2019-04-22T14:49:54.275Z,100263.83
2019-04-22T14:53:21.037Z,100257.08
2019-04-22T14:56:26.561Z,100253.44
2019-04-22T14:59:50.177Z,100238.75
2019-04-22T15:03:13.558Z,100235.41
2019-04-22T15:06:37.952Z,100230.06
2019-04-22T15:10:01.950Z,100222.50
2019-04-22T15:13:25.396Z,100223.48
2019-04-22T15:17:09.000Z,100223.33
2019-04-22T15:20:41.975Z,100220.86
2019-04-22T15:24:25.098Z,100218.09
2019-04-22T15:27:51.074Z,100211.72
2019-04-22T15:31:15.275Z,100202.46
2019-04-22T15:34:39.501Z,100202.52
2019-04-22T15:38:04.573Z,100202.39
2019-04-22T15:41:30.415Z,100195.59
2019-04-22T15:44:53.874Z,100193.01
2019-04-22T15:48:17.117Z,100185.86
2019-04-22T15:51:40.926Z,100180.30
2019-04-22T15:55:04.863Z,100174.09
2019-04-22T15:58:30.260Z,100176.07
2019-04-22T16:01:58.168Z,100178.20
2019-04-22T16:05:18.359Z,100181.09
2019-04-22T16:08:41.457Z,100174.82
2019-04-22T16:12:16.191Z,100173.63
2019-04-22T16:15:30.739Z,100176.55
2019-04-22T16:18:54.356Z,100171.81
2019-04-22T16:22:19.728Z,100172.69
2019-04-22T16:25:56.042Z,100153.23
2019-04-22T16:29:19.450Z,100162.98
2019-04-22T16:32:43.519Z,100160.65
2019-04-22T16:36:07.251Z,100152.37
2019-04-22T16:39:32.967Z,100155.92
2019-04-22T16:42:59.265Z,100146.21
2019-04-22T16:46:21.815Z,100146.09
2019-04-22T16:49:45.697Z,100146.98
2019-04-22T16:53:10.218Z,100144.20
2019-04-22T16:56:35.650Z,100146.06
2019-04-22T17:00:00.533Z,100133.59
2019-04-22T17:03:42.819Z,100145.86
2019-04-22T17:07:12.363Z,100142.62
2019-04-22T17:10:35.727Z,100134.69
2019-04-22T17:13:59.399Z,100133.98
2019-04-22T17:17:24.515Z,100139.40
2019-04-22T17:20:48.736Z,100139.47
2019-04-22T17:24:12.084Z,100142.72
2019-04-22T17:27:35.272Z,100137.18
2019-04-22T17:31:01.793Z,100140.25
2019-04-22T17:34:27.529Z,100135.34
2019-04-22T17:38:01.758Z,100129.70
2019-04-22T17:41:33.115Z,100132.77
2019-04-22T17:45:38.919Z,100137.16
2019-04-22T17:49:04.348Z,100133.06
2019-04-22T17:52:30.371Z,100130.61
2019-04-22T17:56:00.606Z,100129.02
2019-04-22T17:59:25.038Z,100124.73
2019-04-22T18:02:45.875Z,100130.67
2019-04-22T18:05:59.550Z,100133.80
2019-04-22T18:10:10.704Z,100135.16
2019-04-22T18:13:14.018Z,100134.89
2019-04-22T18:16:30.525Z,100139.97
2019-04-22T18:19:51.875Z,100142.38
2019-04-22T18:23:09.649Z,100145.14
2019-04-22T18:26:49.754Z,100149.00
2019-04-22T18:30:09.234Z,100149.22
2019-04-22T18:33:37.115Z,100155.42
2019-04-22T18:37:01.682Z,100156.69
2019-04-22T18:40:30.975Z,100160.52
2019-04-22T18:43:58.777Z,100154.48
2019-04-22T18:47:18.585Z,100155.00
2019-04-22T18:50:56.289Z,100161.52
2019-04-22T18:54:36.234Z,100166.25
2019-04-22T18:57:59.110Z,100166.98
2019-04-22T19:01:10.251Z,100160.05
2019-04-22T19:04:44.362Z,100162.66
2019-04-22T19:08:29.256Z,100167.31
2019-04-22T19:12:01.797Z,100168.67
2019-04-22T19:15:22.657Z,100175.04
2019-04-22T19:18:41.505Z,100180.69
2019-04-22T19:22:02.209Z,100175.66
2019-04-22T19:25:23.897Z,100175.33
2019-04-22T19:28:58.794Z,100180.69
2019-04-22T19:32:21.104Z,100179.31
2019-04-22T19:35:40.049Z,100181.48
2019-04-22T19:39:07.998Z,100185.34
2019-04-22T19:46:00.453Z,100180.29
2019-04-22T19:49:33.328Z,100183.48
2019-04-22T19:52:50.046Z,100183.44
2019-04-22T19:56:14.737Z,100183.63
2019-04-22T19:59:45.501Z,100188.91
2019-04-22T20:03:37.707Z,100187.78
2019-04-22T20:06:53.394Z,100185.46
2019-04-22T20:10:26.512Z,100190.41
2019-04-22T20:13:55.734Z,100186.64
2019-04-22T20:17:18.704Z,100180.52
2019-04-22T20:20:44.654Z,100184.14
2019-04-22T20:23:55.933Z,100183.63
2019-04-22T20:27:39.248Z,100191.86
2019-04-22T20:30:55.494Z,100198.60
2019-04-22T20:34:23.929Z,100191.94
2019-04-22T20:37:54.878Z,100188.34
2019-04-22T20:41:15.017Z,100187.70
2019-04-22T20:44:47.291Z,100186.98
2019-04-22T20:47:58.809Z,100180.44
2019-04-22T20:51:45.912Z,100185.87
2019-04-22T20:54:55.983Z,100184.48
2019-04-22T20:58:21.246Z,100172.28
2019-04-22T21:01:43.238Z,100183.91
2019-04-22T21:05:00.155Z,100181.66
2019-04-22T21:08:38.952Z,100183.28
2019-04-22T21:11:57.773Z,100186.39
2019-04-22T21:15:36.860Z,100191.69
2019-04-22T21:18:46.296Z,100188.18
2019-04-22T21:22:27.297Z,100180.83
2019-04-22T21:25:39.601Z,100180.93
2019-04-22T21:29:14.718Z,100176.69
2019-04-22T21:32:42.036Z,100171.88
2019-04-22T21:36:16.240Z,100172.02
2019-04-22T21:39:27.459Z,100176.09
2019-04-22T21:43:01.041Z,100169.47
2019-04-22T21:46:22.333Z,100165.70
2019-04-22T21:49:51.397Z,100163.27
2019-04-22T21:53:14.495Z,100158.95
2019-04-22T21:57:16.984Z,100156.60
2019-04-22T22:00:43.230Z,100160.59
2019-04-22T22:04:06.616Z,100160.23
2019-04-22T22:07:13.561Z,100159.56
2019-04-22T22:10:56.853Z,100164.03
2019-04-22T22:14:16.720Z,100151.88
2019-04-22T22:17:35.370Z,100158.01
2019-04-22T22:21:30.928Z,100155.47
2019-04-22T22:24:35.914Z,100159.44
2019-04-22T22:28:00.955Z,100159.94
2019-04-22T22:31:31.382Z,100155.34
2019-04-22T22:34:52.077Z,100151.25
2019-04-22T22:38:13.440Z,100144.06
2019-04-22T22:41:18.407Z,100147.97
2019-04-22T22:44:46.741Z,100143.05
2019-04-22T22:48:34.875Z,100141.67
2019-04-22T22:52:03.561Z,100137.07
2019-04-22T22:55:22.262Z,100131.58
2019-04-22T22:58:50.369Z,100126.14
2019-04-22T23:02:09.657Z,100119.98
2019-04-22T23:05:40.213Z,100124.59
2019-04-22T23:09:04.449Z,100128.16
2019-04-22T23:12:34.762Z,100129.83
2019-04-22T23:15:47.732Z,100119.55
2019-04-22T23:19:02.017Z,100111.56
2019-04-22T23:22:36.147Z,100108.08
2019-04-22T23:26:11.877Z,100110.52
2019-04-22T23:29:47.540Z,100109.30
2019-04-22T23:33:21.814Z,100101.91
2019-04-22T23:37:04.385Z,100101.67
2019-04-22T23:40:37.117Z,100099.33
2019-04-22T23:44:02.061Z,100096.48
2019-04-22T23:47:24.279Z,100088.69
2019-04-22T23:50:54.146Z,100087.28
2019-04-22T23:54:23.974Z,100079.11
2019-04-22T23:57:46.571Z,100080.94
